Aérodrome :
LOGIN :

S'inscrire | Disclaimer

   EN    FR    IT 

 










Légende :    VFR   VFR Marginal   IFR   IFR Intensif   IFR Très Intensif
Visi : 
Plafond : 
>= 8 km
>= 3000ft
5 à 8 km
1000 à 3000 ft
1500m à 5 km
500 à 1000 ft
800 à 1500m
200 à 500 ft
< 800m
< 200 ft
Symboles :   Orages  Brouillard  Fortes neiges  Fortes précipitations  Vent > 20 kt
SIGMETs :   Divers  Orages  Givrage  Turbulence  Onde Orograph.  Cendres Volcan.






- Altitude de l'aérodrome : 137 ft
- Code IATA : ARN


ESSA - Stockholm-Arlanda

DERNIER METAR :
  • 260320Z 29007KT 9999 OVC028 M04/M05 Q1002 R01R/602174 R08/SNOCLO NOSIG

METARs EXPIRÉS :
  • 260250Z 30006KT 9999 OVC033 M04/M05 Q1002 R01R/602174 R08/SNOCLO NOSIG
  • 260220Z 30008KT 9999 OVC033 M04/M05 Q1002 R01R/602174 R08/N NOSIG
  • 260150Z 29007KT 9999 FEW012 OVC034 M04/M05 Q1001 R01R/602174 R08/SNOCLO NOSIG

TAF AMD TAF ESSA
Valide du 26 à 00h jusqu'au 27 à 00h UTC


252355Z 2600/2624 32008KT 9999 BKN012
TEMPO 2600/2606 BKN015
PROB40 2606/2610 4000 -SN BKN015
TEMPO 2610/2624 BKN015



MET'MAP, la Météo Aéronautique d'un coup d'oeil ! - Copyright ORBIFLY Décembre 2007 - Disclaimer

ORBIFLY MET'MAP TEAM :

Programmation & Développement : Alexandra Zaïnal
Sur une idée originale de : Baudouin d'Aumeries
Assistance à la programmation : Marc-Olivier Méhu
Soutien technique & logistique : Manuel Goepfert

Contact : metmap@orbifly.com




SOURCES & CREDITS :

   NOAA